createdAt,value
2024-02-11T00:02:13.918Z,12.30
2024-02-11T00:04:42.588Z,12.30
2024-02-11T00:07:09.489Z,12.30
2024-02-11T00:09:36.057Z,12.30
2024-02-11T00:12:02.606Z,12.30
2024-02-11T00:14:29.131Z,12.20
2024-02-11T00:17:00.926Z,12.20
2024-02-11T00:19:28.429Z,12.30
2024-02-11T00:21:55.007Z,12.30
2024-02-11T00:24:24.697Z,12.20
2024-02-11T00:26:51.257Z,12.20
2024-02-11T00:29:19.486Z,12.20
2024-02-11T00:31:46.137Z,12.20
2024-02-11T00:34:13.807Z,12.10
2024-02-11T00:36:42.117Z,12.20
2024-02-11T00:39:08.790Z,12.20
2024-02-11T00:41:40.399Z,12.20
2024-02-11T00:44:09.954Z,12.10
2024-02-11T00:46:36.915Z,12.00
2024-02-11T00:49:04.950Z,12.00
2024-02-11T00:51:31.785Z,12.00
2024-02-11T00:53:58.713Z,12.00
2024-02-11T00:56:25.421Z,12.00
2024-02-11T00:58:52.007Z,12.00
2024-02-11T01:01:18.626Z,12.10
2024-02-11T01:03:45.148Z,12.00
2024-02-11T01:06:13.325Z,12.00
2024-02-11T01:08:39.825Z,11.80
2024-02-11T01:11:09.644Z,11.70
2024-02-11T01:13:36.277Z,11.60
2024-02-11T01:16:02.851Z,11.60
2024-02-11T01:18:29.467Z,11.50
2024-02-11T01:20:56.692Z,11.40
2024-02-11T01:23:23.220Z,11.40
2024-02-11T01:25:50.987Z,11.30
2024-02-11T01:28:17.543Z,11.30
2024-02-11T01:30:46.501Z,11.20
2024-02-11T01:33:13.163Z,11.00
2024-02-11T01:35:42.925Z,11.00
2024-02-11T01:38:10.994Z,10.90
2024-02-11T01:40:37.693Z,10.80
2024-02-11T01:43:11.150Z,10.80
2024-02-11T01:45:38.136Z,10.70
2024-02-11T01:48:06.150Z,10.60
2024-02-11T01:50:35.348Z,10.60
2024-02-11T01:53:04.007Z,10.50
2024-02-11T01:55:31.668Z,10.50
2024-02-11T01:57:59.249Z,10.50
2024-02-11T02:00:26.163Z,10.40
2024-02-11T02:02:56.194Z,10.30
2024-02-11T02:05:23.033Z,10.30
2024-02-11T02:07:49.720Z,10.20
2024-02-11T02:10:16.300Z,10.10
2024-02-11T02:12:43.283Z,10.10
2024-02-11T02:15:10.888Z,10.10
2024-02-11T02:17:37.683Z,10.10
2024-02-11T02:20:05.414Z,10.10
2024-02-11T02:22:34.563Z,10.10
2024-02-11T02:25:01.114Z,10.10
2024-02-11T02:27:27.697Z,10.00
2024-02-11T02:29:55.244Z,9.90
2024-02-11T02:32:21.917Z,9.90
2024-02-11T02:34:48.576Z,9.80
2024-02-11T02:37:15.092Z,9.80
2024-02-11T02:39:41.845Z,9.80
2024-02-11T02:42:09.795Z,9.70
2024-02-11T02:44:38.641Z,9.70
2024-02-11T02:47:05.586Z,9.70
2024-02-11T02:49:33.723Z,9.80
2024-02-11T02:52:02.820Z,9.80
2024-02-11T02:54:29.612Z,9.80
2024-02-11T02:56:56.233Z,9.60
2024-02-11T02:59:22.856Z,9.60
2024-02-11T03:01:49.415Z,9.50
2024-02-11T03:04:17.385Z,9.50
2024-02-11T03:06:44.010Z,9.50
2024-02-11T03:09:10.909Z,9.60
2024-02-11T03:11:40.664Z,9.50
2024-02-11T03:14:07.309Z,9.50
2024-02-11T03:16:33.979Z,9.50
2024-02-11T03:19:00.612Z,9.50
2024-02-11T03:21:27.369Z,9.50
2024-02-11T03:23:53.932Z,9.50
2024-02-11T03:26:20.605Z,9.50
2024-02-11T03:28:47.284Z,9.50
2024-02-11T03:31:13.854Z,9.50
2024-02-11T03:33:40.547Z,9.40
2024-02-11T03:36:07.465Z,9.40
2024-02-11T03:38:34.039Z,9.40
2024-02-11T03:41:00.619Z,9.40
2024-02-11T03:43:27.232Z,9.30
2024-02-11T03:45:53.752Z,9.30
2024-02-11T03:48:20.410Z,9.30
2024-02-11T03:50:47.186Z,9.30
2024-02-11T03:53:16.307Z,9.40
2024-02-11T03:55:43.162Z,9.30
2024-02-11T03:58:09.983Z,9.30
2024-02-11T04:00:36.594Z,9.30
2024-02-11T04:03:03.401Z,9.30
2024-02-11T04:05:30.368Z,9.30
2024-02-11T04:07:57.722Z,9.30
2024-02-11T04:10:29.182Z,9.30
2024-02-11T04:12:59.689Z,9.30
2024-02-11T04:15:28.279Z,9.20
2024-02-11T04:17:57.775Z,9.20
2024-02-11T04:20:28.258Z,9.20
2024-02-11T04:22:59.633Z,9.10
2024-02-11T04:25:31.597Z,9.00
2024-02-11T04:27:58.204Z,9.00
2024-02-11T04:30:29.013Z,9.10
2024-02-11T04:32:55.928Z,9.10
2024-02-11T04:35:25.623Z,9.10
2024-02-11T04:37:56.588Z,9.10
2024-02-11T04:40:26.067Z,9.00
2024-02-11T04:42:58.150Z,9.10
2024-02-11T04:45:26.733Z,9.00
2024-02-11T04:48:00.817Z,9.00
2024-02-11T04:50:29.367Z,9.00
2024-02-11T04:52:58.141Z,9.10
2024-02-11T04:55:29.495Z,9.10
2024-02-11T04:57:59.988Z,9.20
2024-02-11T05:00:28.437Z,9.10
2024-02-11T05:02:57.188Z,9.10
2024-02-11T05:05:32.508Z,9.10
2024-02-11T05:08:04.509Z,9.10
2024-02-11T05:10:35.325Z,9.10
2024-02-11T05:13:06.127Z,9.00
2024-02-11T05:15:33.237Z,9.00
2024-02-11T05:18:01.641Z,9.00
2024-02-11T05:20:29.725Z,9.10
2024-02-11T05:22:58.175Z,9.10
2024-02-11T05:25:27.016Z,9.10
2024-02-11T05:27:59.794Z,9.00
2024-02-11T05:30:34.117Z,9.10
2024-02-11T05:33:03.384Z,9.10
2024-02-11T05:35:30.757Z,9.10
2024-02-11T05:38:00.623Z,9.10
2024-02-11T05:40:28.502Z,9.10
2024-02-11T05:42:56.143Z,9.10
2024-02-11T05:45:23.671Z,9.10
2024-02-11T05:47:54.333Z,9.10
2024-02-11T05:50:22.503Z,9.10
2024-02-11T05:52:50.178Z,9.10
2024-02-11T05:55:20.074Z,9.10
2024-02-11T05:57:48.257Z,9.10
2024-02-11T06:00:17.252Z,9.10
2024-02-11T06:02:48.223Z,9.10
2024-02-11T06:05:15.883Z,9.10
2024-02-11T06:07:53.190Z,9.00
2024-02-11T06:10:20.236Z,9.00
2024-02-11T06:12:48.116Z,9.10
2024-02-11T06:15:17.276Z,9.10
2024-02-11T06:17:44.269Z,9.10
2024-02-11T06:20:14.650Z,9.10
2024-02-11T06:22:43.574Z,9.10
2024-02-11T06:25:10.997Z,9.10
2024-02-11T06:27:40.422Z,9.10
2024-02-11T06:30:14.402Z,9.00
2024-02-11T06:32:43.293Z,9.10
2024-02-11T06:35:10.539Z,9.10
2024-02-11T06:37:41.666Z,9.10
2024-02-11T06:40:13.647Z,9.10
2024-02-11T06:42:40.690Z,9.10
2024-02-11T06:45:09.471Z,9.20
2024-02-11T06:47:37.804Z,9.10
2024-02-11T06:50:05.500Z,9.10
2024-02-11T06:52:32.335Z,9.10
2024-02-11T06:54:59.882Z,9.10
2024-02-11T06:57:26.528Z,9.20
2024-02-11T06:59:53.990Z,9.20
2024-02-11T07:02:21.737Z,9.20
2024-02-11T07:04:48.340Z,9.20
2024-02-11T07:07:14.969Z,9.20
2024-02-11T07:09:42.347Z,9.20
2024-02-11T07:12:09.220Z,9.30
2024-02-11T07:14:36.099Z,9.30
2024-02-11T07:17:02.800Z,9.20
2024-02-11T07:19:30.145Z,9.20
2024-02-11T07:21:57.289Z,9.30
2024-02-11T07:24:23.847Z,9.40
2024-02-11T07:26:50.334Z,9.40
2024-02-11T07:29:20.080Z,9.30
2024-02-11T07:31:46.775Z,9.30
2024-02-11T07:34:14.407Z,9.30
2024-02-11T07:36:43.268Z,9.40
2024-02-11T07:39:10.093Z,9.40
2024-02-11T07:41:36.658Z,9.40
2024-02-11T07:44:03.411Z,9.40
2024-02-11T07:46:30.958Z,9.40
2024-02-11T07:49:04.527Z,9.40
2024-02-11T07:51:31.481Z,9.50
2024-02-11T07:53:58.421Z,9.50
2024-02-11T07:56:26.642Z,9.50
2024-02-11T07:58:53.681Z,9.50
2024-02-11T08:01:20.382Z,9.50
2024-02-11T08:03:49.085Z,9.50
2024-02-11T08:06:15.946Z,9.50
2024-02-11T08:08:42.482Z,9.40
2024-02-11T08:11:09.474Z,9.40
2024-02-11T08:13:36.218Z,9.40
2024-02-11T08:16:04.241Z,9.40
2024-02-11T08:18:31.345Z,9.30
2024-02-11T08:20:58.939Z,9.40
2024-02-11T08:23:28.450Z,9.40
2024-02-11T08:25:56.480Z,9.50
2024-02-11T08:28:23.147Z,9.50
2024-02-11T08:30:49.678Z,9.60
2024-02-11T08:33:16.400Z,9.60
2024-02-11T08:35:47.616Z,9.80
2024-02-11T08:38:14.727Z,9.80
2024-02-11T08:40:41.474Z,9.90
2024-02-11T08:43:08.196Z,9.90
2024-02-11T08:45:34.821Z,9.80
2024-02-11T08:48:01.583Z,9.80
2024-02-11T08:50:28.636Z,9.90
2024-02-11T08:52:56.476Z,9.90
2024-02-11T08:55:23.056Z,9.90
2024-02-11T08:57:49.607Z,9.90
2024-02-11T09:00:17.851Z,9.90
2024-02-11T09:02:44.504Z,10.00
2024-02-11T09:05:11.443Z,10.00
2024-02-11T09:07:44.016Z,10.00
2024-02-11T09:10:11.100Z,10.00
2024-02-11T09:12:37.604Z,10.00
2024-02-11T09:15:04.371Z,10.10
2024-02-11T09:17:34.065Z,10.20
2024-02-11T09:20:01.569Z,10.30
2024-02-11T09:22:28.213Z,10.30
2024-02-11T09:24:55.782Z,10.30
2024-02-11T09:27:22.752Z,10.20
2024-02-11T09:29:49.860Z,10.30
2024-02-11T09:32:17.927Z,10.40
2024-02-11T09:34:44.718Z,10.50
2024-02-11T09:37:12.012Z,10.60
2024-02-11T09:39:38.624Z,10.60
2024-02-11T09:42:05.569Z,10.50
2024-02-11T09:44:35.043Z,10.50
2024-02-11T09:47:04.364Z,10.60
2024-02-11T09:49:32.656Z,10.60
2024-02-11T09:52:04.058Z,10.50
2024-02-11T09:54:32.664Z,10.40
2024-02-11T09:56:59.311Z,10.30
2024-02-11T09:59:28.814Z,10.30
2024-02-11T10:01:58.259Z,10.40
2024-02-11T10:04:29.400Z,10.40
2024-02-11T10:06:58.137Z,10.40
2024-02-11T10:09:24.734Z,10.40
2024-02-11T10:11:51.321Z,10.50
2024-02-11T10:14:19.953Z,10.50
2024-02-11T10:16:47.400Z,10.50
2024-02-11T10:19:14.259Z,10.60
2024-02-11T10:21:44.743Z,10.80
2024-02-11T10:24:11.286Z,10.90
2024-02-11T10:26:38.751Z,11.00
2024-02-11T10:29:05.663Z,10.90
2024-02-11T10:31:32.357Z,10.80
2024-02-11T10:33:59.633Z,10.80
2024-02-11T10:36:27.242Z,10.90
2024-02-11T10:38:55.405Z,11.00
2024-02-11T10:41:23.952Z,11.10
2024-02-11T10:43:52.387Z,11.10
2024-02-11T10:46:23.993Z,11.20
2024-02-11T10:48:53.880Z,11.40
2024-02-11T10:51:24.798Z,11.40
2024-02-11T10:54:02.700Z,11.40
2024-02-11T10:56:30.201Z,11.40
2024-02-11T10:59:10.204Z,11.30
2024-02-11T11:01:41.133Z,11.40
2024-02-11T11:04:14.258Z,11.60
2024-02-11T11:06:42.389Z,11.60
2024-02-11T11:09:11.141Z,11.60
2024-02-11T11:11:37.740Z,11.70
2024-02-11T11:14:10.994Z,11.80
2024-02-11T11:16:43.774Z,11.90
2024-02-11T11:19:15.725Z,11.90
2024-02-11T11:21:52.720Z,11.90
2024-02-11T11:24:19.843Z,11.90
2024-02-11T11:26:53.765Z,12.10
2024-02-11T11:29:20.574Z,12.10
2024-02-11T11:31:48.487Z,11.90
2024-02-11T11:34:18.244Z,11.70
2024-02-11T11:36:44.929Z,11.60
2024-02-11T11:39:12.702Z,11.50
2024-02-11T11:41:39.356Z,11.50
2024-02-11T11:44:06.556Z,11.40
2024-02-11T11:46:34.210Z,11.30
2024-02-11T11:49:01.030Z,11.30
2024-02-11T11:51:33.723Z,11.30
2024-02-11T11:54:04.238Z,11.30
2024-02-11T11:56:31.135Z,11.30
2024-02-11T11:59:05.574Z,11.30
2024-02-11T12:01:33.878Z,11.30
2024-02-11T12:04:01.172Z,11.30
2024-02-11T12:06:27.926Z,11.50
2024-02-11T12:08:54.642Z,11.50
2024-02-11T12:11:22.088Z,11.60
2024-02-11T12:13:49.154Z,11.60
2024-02-11T12:16:18.263Z,11.70
2024-02-11T12:18:45.859Z,11.70
2024-02-11T12:21:12.544Z,11.70
2024-02-11T12:23:39.354Z,11.80
2024-02-11T12:26:09.055Z,11.80
2024-02-11T12:28:41.936Z,11.80
2024-02-11T12:31:13.996Z,11.90
2024-02-11T12:33:46.215Z,11.90
2024-02-11T12:36:14.883Z,12.00
2024-02-11T12:38:43.411Z,12.00
2024-02-11T12:41:11.010Z,12.00
2024-02-11T12:43:39.155Z,11.90
2024-02-11T12:46:07.816Z,11.80
2024-02-11T12:48:34.516Z,11.70
2024-02-11T12:51:02.331Z,11.70
2024-02-11T12:53:29.271Z,11.70
2024-02-11T12:55:57.961Z,11.80
2024-02-11T12:58:24.924Z,11.70
2024-02-11T13:00:51.573Z,11.60
2024-02-11T13:03:18.316Z,11.50
2024-02-11T13:05:45.229Z,11.50
2024-02-11T13:08:12.809Z,11.50
2024-02-11T13:10:39.589Z,11.40
2024-02-11T13:13:06.882Z,11.40
2024-02-11T13:15:35.017Z,11.40
2024-02-11T13:18:15.776Z,11.40
2024-02-11T13:20:46.271Z,11.50
2024-02-11T13:23:13.596Z,11.50
2024-02-11T13:25:45.575Z,11.60
2024-02-11T13:28:15.311Z,11.70
2024-02-11T13:30:42.354Z,11.80
2024-02-11T13:33:10.474Z,12.00
2024-02-11T13:35:39.133Z,12.10
2024-02-11T13:38:06.623Z,12.30
2024-02-11T13:40:34.194Z,12.40
2024-02-11T13:43:01.117Z,12.50
2024-02-11T13:45:31.710Z,12.60
2024-02-11T13:47:59.242Z,12.70
2024-02-11T13:50:26.012Z,12.90
2024-02-11T13:52:52.944Z,13.00
2024-02-11T13:55:20.001Z,12.90
2024-02-11T13:57:46.708Z,12.80
2024-02-11T14:00:14.128Z,12.70
2024-02-11T14:02:41.402Z,12.70
2024-02-11T14:05:08.319Z,12.70
2024-02-11T14:07:35.100Z,12.70
2024-02-11T14:10:01.826Z,12.70
2024-02-11T14:12:30.759Z,12.70
2024-02-11T14:14:58.270Z,12.50
2024-02-11T14:17:26.970Z,12.40
2024-02-11T14:19:53.662Z,12.30
2024-02-11T14:22:20.454Z,12.30
2024-02-11T14:24:46.999Z,12.20
2024-02-11T14:27:14.345Z,12.20
2024-02-11T14:29:42.205Z,12.20
2024-02-11T14:32:08.914Z,12.30
2024-02-11T14:34:36.345Z,12.50
2024-02-11T14:37:03.082Z,12.40
2024-02-11T14:39:29.967Z,12.30
2024-02-11T14:41:56.801Z,12.30
2024-02-11T14:44:27.129Z,12.30
2024-02-11T14:46:57.947Z,12.10
2024-02-11T14:49:26.104Z,12.20
2024-02-11T14:51:53.154Z,12.20
2024-02-11T14:54:19.684Z,12.10
2024-02-11T14:56:47.208Z,12.00
2024-02-11T14:59:13.999Z,11.90
2024-02-11T15:01:41.002Z,11.80
2024-02-11T15:04:08.647Z,11.70
2024-02-11T15:06:35.999Z,11.80
2024-02-11T15:09:05.628Z,11.80
2024-02-11T15:11:33.348Z,11.80
2024-02-11T15:14:01.553Z,11.70
2024-02-11T15:16:29.218Z,11.60
2024-02-11T15:18:55.923Z,11.50
2024-02-11T15:21:26.442Z,11.40
2024-02-11T15:23:53.546Z,11.40
2024-02-11T15:26:24.491Z,11.40
2024-02-11T15:28:51.936Z,11.40
2024-02-11T15:31:19.032Z,11.40
2024-02-11T15:33:45.824Z,11.40
2024-02-11T15:36:13.344Z,11.50
2024-02-11T15:38:40.708Z,11.50
2024-02-11T15:41:07.489Z,11.60
2024-02-11T15:43:34.062Z,11.70
2024-02-11T15:46:01.937Z,11.70
2024-02-11T15:48:28.601Z,11.60
2024-02-11T15:50:55.752Z,11.50
2024-02-11T15:53:26.539Z,11.50
2024-02-11T15:55:59.377Z,11.40
2024-02-11T15:58:26.055Z,11.40
2024-02-11T16:00:52.705Z,11.30
2024-02-11T16:03:19.440Z,11.20
2024-02-11T16:05:47.018Z,11.20
2024-02-11T16:08:13.915Z,11.20
2024-02-11T16:10:40.956Z,11.20
2024-02-11T16:13:08.032Z,11.10
2024-02-11T16:15:37.902Z,11.00
2024-02-11T16:18:04.758Z,11.00
2024-02-11T16:20:32.872Z,10.90
2024-02-11T16:22:59.604Z,10.90
2024-02-11T16:25:26.213Z,11.00
2024-02-11T16:27:52.919Z,11.00
2024-02-11T16:30:20.814Z,10.90
2024-02-11T16:32:48.620Z,10.90
2024-02-11T16:35:21.348Z,10.90
2024-02-11T16:37:49.983Z,10.80
2024-02-11T16:40:20.346Z,10.80
2024-02-11T16:42:47.771Z,10.70
2024-02-11T16:45:14.463Z,10.70
2024-02-11T16:47:41.260Z,10.70
2024-02-11T16:50:12.477Z,10.70
2024-02-11T16:52:40.282Z,10.60
2024-02-11T16:55:08.128Z,10.50
2024-02-11T16:57:35.122Z,10.60
2024-02-11T17:00:04.774Z,10.60
2024-02-11T17:02:31.828Z,10.60
2024-02-11T17:05:00.394Z,10.60
2024-02-11T17:07:29.291Z,10.60
2024-02-11T17:09:55.940Z,10.50
2024-02-11T17:12:22.499Z,10.60
2024-02-11T17:14:49.224Z,10.60
2024-02-11T17:17:16.176Z,10.50
2024-02-11T17:19:43.085Z,10.50
2024-02-11T17:22:12.093Z,10.50
2024-02-11T17:24:40.024Z,10.50
2024-02-11T17:27:07.150Z,10.50
2024-02-11T17:29:33.856Z,10.50
2024-02-11T17:32:00.541Z,10.50
2024-02-11T17:34:28.086Z,10.50
2024-02-11T17:36:55.060Z,10.50
2024-02-11T17:39:21.923Z,10.50
2024-02-11T17:41:48.553Z,10.50
2024-02-11T17:44:15.763Z,10.40
2024-02-11T17:46:42.862Z,10.30
2024-02-11T17:49:11.375Z,10.30
2024-02-11T17:51:41.678Z,10.30
2024-02-11T17:54:13.369Z,10.30
2024-02-11T17:56:46.077Z,10.30
2024-02-11T17:59:13.297Z,10.20
2024-02-11T18:01:41.501Z,10.10
2024-02-11T18:04:08.904Z,10.10
2024-02-11T18:06:36.956Z,10.10
2024-02-11T18:09:05.390Z,10.10
2024-02-11T18:11:37.061Z,10.00
2024-02-11T18:14:04.747Z,10.00
2024-02-11T18:16:32.439Z,10.00
2024-02-11T18:18:59.187Z,9.90
2024-02-11T18:21:28.482Z,9.90
2024-02-11T18:23:56.451Z,9.90
2024-02-11T18:26:23.133Z,10.00
2024-02-11T18:28:50.184Z,10.00
2024-02-11T18:31:18.229Z,10.10
2024-02-11T18:33:48.448Z,10.10
2024-02-11T18:36:15.052Z,10.00
2024-02-11T18:38:42.557Z,10.10
2024-02-11T18:41:09.477Z,10.10
2024-02-11T18:43:36.097Z,10.10
2024-02-11T18:46:06.307Z,10.10
2024-02-11T18:48:33.128Z,10.10
2024-02-11T18:50:59.755Z,10.10
2024-02-11T18:53:28.328Z,10.10
2024-02-11T18:55:55.739Z,10.10
2024-02-11T18:58:22.376Z,10.10
2024-02-11T19:00:49.919Z,10.10
2024-02-11T19:03:16.636Z,10.10
2024-02-11T19:05:44.583Z,10.20
2024-02-11T19:08:11.457Z,10.20
2024-02-11T19:10:38.165Z,10.10
2024-02-11T19:13:05.775Z,10.20
2024-02-11T19:15:32.558Z,10.10
2024-02-11T19:18:00.266Z,10.10
2024-02-11T19:20:27.216Z,10.10
2024-02-11T19:22:54.112Z,10.20
2024-02-11T19:25:20.663Z,10.20
2024-02-11T19:27:47.547Z,10.10
2024-02-11T19:30:14.927Z,10.10
2024-02-11T19:32:42.025Z,10.10
2024-02-11T19:35:09.951Z,10.10
2024-02-11T19:37:40.652Z,10.10
2024-02-11T19:40:11.274Z,10.10
2024-02-11T19:42:38.832Z,10.10
2024-02-11T19:45:07.686Z,10.00
2024-02-11T19:47:39.855Z,10.00
2024-02-11T19:50:11.608Z,10.00
2024-02-11T19:52:38.656Z,10.00
2024-02-11T19:55:05.618Z,10.00
2024-02-11T19:57:32.551Z,10.00
2024-02-11T19:59:59.844Z,10.00
2024-02-11T20:02:26.889Z,10.00
2024-02-11T20:04:55.315Z,10.00
2024-02-11T20:07:23.962Z,10.00
2024-02-11T20:09:50.672Z,10.00
2024-02-11T20:12:18.398Z,10.00
2024-02-11T20:14:45.531Z,9.90
2024-02-11T20:17:12.404Z,9.90
2024-02-11T20:19:42.052Z,9.90
2024-02-11T20:22:12.692Z,9.90
2024-02-11T20:24:40.773Z,9.90
2024-02-11T20:27:10.172Z,9.90
2024-02-11T20:29:39.934Z,9.90
2024-02-11T20:32:10.056Z,9.90
2024-02-11T20:34:38.854Z,9.90
2024-02-11T20:37:08.653Z,9.90
2024-02-11T20:39:38.266Z,9.90
2024-02-11T20:42:06.098Z,9.80
2024-02-11T20:44:34.937Z,9.80
2024-02-11T20:47:01.866Z,9.80
2024-02-11T20:49:28.719Z,9.90
2024-02-11T20:51:55.400Z,9.80
2024-02-11T20:54:22.261Z,9.80
2024-02-11T20:56:49.400Z,9.80
2024-02-11T20:59:17.817Z,9.80
2024-02-11T21:01:44.600Z,9.80
2024-02-11T21:04:11.370Z,9.90
2024-02-11T21:06:39.006Z,9.90
2024-02-11T21:09:07.546Z,9.90
2024-02-11T21:11:34.307Z,9.90
2024-02-11T21:14:02.277Z,9.90
2024-02-11T21:16:29.042Z,9.90
2024-02-11T21:18:57.503Z,9.80
2024-02-11T21:21:25.942Z,9.90
2024-02-11T21:23:52.618Z,9.90
2024-02-11T21:26:20.593Z,9.90
2024-02-11T21:28:49.242Z,9.80
2024-02-11T21:31:21.673Z,9.80
2024-02-11T21:33:52.955Z,9.80
2024-02-11T21:36:19.895Z,9.80
2024-02-11T21:38:46.523Z,9.80
2024-02-11T21:41:18.681Z,9.80
2024-02-11T21:43:47.235Z,9.80
2024-02-11T21:46:16.533Z,9.80
2024-02-11T21:48:43.237Z,9.80
2024-02-11T21:51:11.154Z,9.80
2024-02-11T21:53:38.722Z,9.80
2024-02-11T21:56:06.861Z,9.80
2024-02-11T21:58:33.690Z,9.80
2024-02-11T22:01:01.706Z,9.70
2024-02-11T22:03:29.213Z,9.70
2024-02-11T22:05:56.696Z,9.80
2024-02-11T22:08:23.577Z,9.80
2024-02-11T22:10:50.442Z,9.80
2024-02-11T22:13:16.941Z,9.70
2024-02-11T22:15:45.013Z,9.70
2024-02-11T22:18:12.294Z,9.70
2024-02-11T22:20:40.306Z,9.70
2024-02-11T22:23:08.193Z,9.70
2024-02-11T22:25:34.876Z,9.70
2024-02-11T22:28:01.454Z,9.70
2024-02-11T22:30:28.035Z,9.60
2024-02-11T22:32:54.985Z,9.60
2024-02-11T22:35:22.495Z,9.60
2024-02-11T22:37:50.707Z,9.60
2024-02-11T22:40:17.657Z,9.60
2024-02-11T22:42:44.711Z,9.70
2024-02-11T22:45:11.304Z,9.70
2024-02-11T22:47:38.071Z,9.70
2024-02-11T22:50:05.271Z,9.60
2024-02-11T22:52:32.874Z,9.60
2024-02-11T22:55:00.212Z,9.60
2024-02-11T22:57:27.409Z,9.60
2024-02-11T22:59:54.282Z,9.60
2024-02-11T23:02:21.711Z,9.60
2024-02-11T23:04:48.809Z,9.60
2024-02-11T23:07:15.530Z,9.60
2024-02-11T23:09:43.389Z,9.60
2024-02-11T23:12:10.571Z,9.60
2024-02-11T23:14:37.428Z,9.60
2024-02-11T23:17:05.372Z,9.50
2024-02-11T23:19:32.306Z,9.50
2024-02-11T23:22:06.239Z,9.50
2024-02-11T23:24:32.777Z,9.40
2024-02-11T23:27:06.724Z,9.50
2024-02-11T23:29:36.586Z,9.50
2024-02-11T23:32:05.244Z,9.50
2024-02-11T23:34:31.869Z,9.50
2024-02-11T23:36:58.853Z,9.50
2024-02-11T23:39:27.375Z,9.50
2024-02-11T23:41:55.580Z,9.50
2024-02-11T23:44:22.176Z,9.50
2024-02-11T23:46:50.352Z,9.50
2024-02-11T23:49:18.636Z,9.60
2024-02-11T23:51:45.359Z,9.60
2024-02-11T23:54:12.001Z,9.50
2024-02-11T23:56:41.528Z,9.60
2024-02-11T23:59:12.387Z,9.60
